createdAt,value
2023-06-18T00:00:14.457Z,9.65
2023-06-18T00:02:42.319Z,9.15
2023-06-18T00:05:09.785Z,8.48
2023-06-18T00:07:37.178Z,8.23
2023-06-18T00:10:05.614Z,9.43
2023-06-18T00:12:33.010Z,9.15
2023-06-18T00:15:00.547Z,9.63
2023-06-18T00:17:28.225Z,9.60
2023-06-18T00:19:55.618Z,10.02
2023-06-18T00:22:24.236Z,9.82
2023-06-18T00:24:51.901Z,9.73
2023-06-18T00:27:21.220Z,9.63
2023-06-18T00:29:48.618Z,9.45
2023-06-18T00:32:16.346Z,9.32
2023-06-18T00:34:43.780Z,9.48
2023-06-18T00:37:12.085Z,9.80
2023-06-18T00:39:39.872Z,9.80
2023-06-18T00:42:08.800Z,9.00
2023-06-18T00:44:41.105Z,9.63
2023-06-18T00:47:12.912Z,10.00
2023-06-18T00:49:43.715Z,9.45
2023-06-18T00:52:13.666Z,9.23
2023-06-18T00:54:41.994Z,9.43
2023-06-18T00:57:09.677Z,9.32
2023-06-18T00:59:38.598Z,9.50
2023-06-18T01:02:06.419Z,9.30
2023-06-18T01:04:34.256Z,9.00
2023-06-18T01:07:03.859Z,9.32
2023-06-18T01:09:31.798Z,9.57
2023-06-18T01:12:01.489Z,9.63
2023-06-18T01:14:29.806Z,8.75
2023-06-18T01:16:58.927Z,9.27
2023-06-18T01:19:47.528Z,8.75
2023-06-18T01:22:27.605Z,10.35
2023-06-18T01:25:03.328Z,10.23
2023-06-18T01:27:34.978Z,9.70
2023-06-18T01:30:02.679Z,9.82
2023-06-18T01:32:30.727Z,10.23
2023-06-18T01:34:58.504Z,10.23
2023-06-18T01:37:49.597Z,9.15
2023-06-18T01:40:26.387Z,9.55
2023-06-18T01:42:57.011Z,9.18
2023-06-18T01:45:30.211Z,9.80
2023-06-18T01:48:00.370Z,9.13
2023-06-18T01:50:28.075Z,9.15
2023-06-18T01:52:55.724Z,9.15
2023-06-18T01:55:23.180Z,8.45
2023-06-18T01:57:51.010Z,9.02
2023-06-18T02:00:19.602Z,8.80
2023-06-18T02:02:48.155Z,9.45
2023-06-18T02:05:15.628Z,8.68
2023-06-18T02:07:43.057Z,9.27
2023-06-18T02:10:11.186Z,8.18
2023-06-18T02:12:38.541Z,8.45
2023-06-18T02:15:08.915Z,8.65
2023-06-18T02:17:36.636Z,8.60
2023-06-18T02:20:04.873Z,8.32
2023-06-18T02:22:32.637Z,8.35
2023-06-18T02:25:00.032Z,8.15
2023-06-18T02:27:27.713Z,8.00
2023-06-18T02:29:55.084Z,8.38
2023-06-18T02:32:22.510Z,8.27
2023-06-18T02:34:50.190Z,7.95
2023-06-18T02:37:17.708Z,8.02
2023-06-18T02:39:45.067Z,9.05
2023-06-18T02:42:13.114Z,7.97
2023-06-18T02:44:43.664Z,8.52
2023-06-18T02:47:11.153Z,9.15
2023-06-18T02:49:38.801Z,8.55
2023-06-18T02:52:07.600Z,8.38
2023-06-18T02:54:35.074Z,8.70
2023-06-18T02:57:02.814Z,7.78
2023-06-18T02:59:30.323Z,8.63
2023-06-18T03:01:57.941Z,8.73
2023-06-18T03:04:25.694Z,8.13
2023-06-18T03:06:54.699Z,8.38
2023-06-18T03:09:22.109Z,7.70
2023-06-18T03:11:50.425Z,8.80
2023-06-18T03:14:18.139Z,7.85
2023-06-18T03:16:46.113Z,8.63
2023-06-18T03:19:13.865Z,7.60
2023-06-18T03:21:41.882Z,8.27
2023-06-18T03:24:09.615Z,7.68
2023-06-18T03:26:37.331Z,8.43
2023-06-18T03:29:04.892Z,8.32
2023-06-18T03:31:33.711Z,8.00
2023-06-18T03:34:02.610Z,7.22
2023-06-18T03:36:30.596Z,8.23
2023-06-18T03:38:58.052Z,7.75
2023-06-18T03:41:26.830Z,8.15
2023-06-18T03:43:54.256Z,7.82
2023-06-18T03:46:21.927Z,8.02
2023-06-18T03:48:50.438Z,7.85
2023-06-18T03:51:18.030Z,9.10
2023-06-18T03:53:46.062Z,8.45
2023-06-18T03:56:13.971Z,7.97
2023-06-18T03:58:41.592Z,7.78
2023-06-18T04:01:09.550Z,8.30
2023-06-18T04:03:40.850Z,8.30
2023-06-18T04:06:08.324Z,8.68
2023-06-18T04:08:35.889Z,8.73
2023-06-18T04:11:03.661Z,8.68
2023-06-18T04:13:31.792Z,8.55
2023-06-18T04:15:59.991Z,8.13
2023-06-18T04:18:27.819Z,8.20
2023-06-18T04:20:55.265Z,8.65
2023-06-18T04:23:22.949Z,8.05
2023-06-18T04:25:50.618Z,8.35
2023-06-18T04:28:18.382Z,8.20
2023-06-18T04:30:45.790Z,8.43
2023-06-18T04:33:13.643Z,8.18
2023-06-18T04:35:42.495Z,9.10
2023-06-18T04:38:12.147Z,9.82
2023-06-18T04:40:40.212Z,9.52
2023-06-18T04:43:07.608Z,9.95
2023-06-18T04:45:35.261Z,10.27
2023-06-18T04:48:04.199Z,10.10
2023-06-18T04:50:33.173Z,10.27
2023-06-18T04:53:01.122Z,9.32
2023-06-18T04:55:29.483Z,9.43
2023-06-18T04:57:57.237Z,9.43
2023-06-18T05:00:24.881Z,8.70
2023-06-18T05:02:52.925Z,10.05
2023-06-18T05:05:20.452Z,9.65
2023-06-18T05:07:48.151Z,9.65
2023-06-18T05:10:15.908Z,9.52
2023-06-18T05:12:43.370Z,9.75
2023-06-18T05:15:10.832Z,9.48
2023-06-18T05:17:38.749Z,8.45
2023-06-18T05:20:07.672Z,9.32
2023-06-18T05:22:35.280Z,9.48
2023-06-18T05:25:05.281Z,9.73
2023-06-18T05:27:33.638Z,9.18
2023-06-18T05:30:01.332Z,9.25
2023-06-18T05:32:30.340Z,9.15
2023-06-18T05:34:58.292Z,9.23
2023-06-18T05:37:25.868Z,9.70
2023-06-18T05:39:53.551Z,9.63
2023-06-18T05:42:22.008Z,8.95
2023-06-18T05:44:49.476Z,8.05
2023-06-18T05:47:17.259Z,9.70
2023-06-18T05:49:44.986Z,9.30
2023-06-18T05:52:12.422Z,9.35
2023-06-18T05:54:40.785Z,8.75
2023-06-18T05:57:08.157Z,9.15
2023-06-18T05:59:35.644Z,8.55
2023-06-18T06:02:06.318Z,9.60
2023-06-18T06:04:34.048Z,9.57
2023-06-18T06:07:01.423Z,9.02
2023-06-18T06:09:28.879Z,10.15
2023-06-18T06:11:57.031Z,9.45
2023-06-18T06:14:24.584Z,10.68
2023-06-18T06:16:58.416Z,8.90
2023-06-18T06:19:26.689Z,9.25
2023-06-18T06:21:54.147Z,8.80
2023-06-18T06:24:22.600Z,9.32
2023-06-18T06:26:50.281Z,8.90
2023-06-18T06:29:18.247Z,9.52
2023-06-18T06:31:45.884Z,9.43
2023-06-18T06:34:13.750Z,10.15
2023-06-18T06:36:41.788Z,9.43
2023-06-18T06:39:10.052Z,9.45
2023-06-18T06:41:37.710Z,9.15
2023-06-18T06:44:05.390Z,10.00
2023-06-18T06:46:33.834Z,9.05
2023-06-18T06:49:08.202Z,9.15
2023-06-18T06:51:36.551Z,9.02
2023-06-18T06:54:05.715Z,8.48
2023-06-18T06:56:33.298Z,9.55
2023-06-18T06:59:00.962Z,8.30
2023-06-18T07:01:28.716Z,8.43
2023-06-18T07:03:56.227Z,9.10
2023-06-18T07:06:23.613Z,8.48
2023-06-18T07:08:51.908Z,8.70
2023-06-18T07:11:19.294Z,8.98
2023-06-18T07:13:46.822Z,8.90
2023-06-18T07:16:14.498Z,8.88
2023-06-18T07:18:41.900Z,8.52
2023-06-18T07:21:09.303Z,8.30
2023-06-18T07:23:37.125Z,9.05
2023-06-18T07:26:04.663Z,9.27
2023-06-18T07:28:32.062Z,8.35
2023-06-18T07:30:59.746Z,8.73
2023-06-18T07:33:27.134Z,8.88
2023-06-18T07:35:54.562Z,8.15
2023-06-18T07:38:23.557Z,8.48
2023-06-18T07:40:51.421Z,9.00
2023-06-18T07:43:18.770Z,8.95
2023-06-18T07:45:46.407Z,8.32
2023-06-18T07:48:13.786Z,8.38
2023-06-18T07:50:41.496Z,9.05
2023-06-18T07:53:09.124Z,8.88
2023-06-18T07:55:36.533Z,9.20
2023-06-18T07:58:03.953Z,9.05
2023-06-18T08:00:31.658Z,9.38
2023-06-18T08:02:59.356Z,9.27
2023-06-18T08:05:26.848Z,8.57
2023-06-18T08:07:54.242Z,8.40
2023-06-18T08:10:22.091Z,8.98
2023-06-18T08:12:49.657Z,8.77
2023-06-18T08:15:17.165Z,8.93
2023-06-18T08:17:44.838Z,8.63
2023-06-18T08:20:12.561Z,8.70
2023-06-18T08:22:39.985Z,7.97
2023-06-18T08:25:07.995Z,8.45
2023-06-18T08:27:35.799Z,8.93
2023-06-18T08:30:06.916Z,8.60
2023-06-18T08:32:34.608Z,8.80
2023-06-18T08:35:02.406Z,8.70
2023-06-18T08:37:31.194Z,9.10
2023-06-18T08:39:58.841Z,7.72
2023-06-18T08:42:26.213Z,8.75
2023-06-18T08:44:54.579Z,8.43
2023-06-18T08:47:22.771Z,8.60
2023-06-18T08:49:51.109Z,8.35
2023-06-18T08:52:19.622Z,8.75
2023-06-18T08:54:49.107Z,7.95
2023-06-18T08:57:46.589Z,8.30
2023-06-18T09:00:14.404Z,7.97
2023-06-18T09:02:42.342Z,7.95
2023-06-18T09:05:11.779Z,8.52
2023-06-18T09:07:39.831Z,8.23
2023-06-18T09:10:07.439Z,8.20
2023-06-18T09:12:34.843Z,7.80
2023-06-18T09:15:03.280Z,7.85
2023-06-18T09:17:31.022Z,7.57
2023-06-18T09:19:58.457Z,7.78
2023-06-18T09:22:26.469Z,7.87
2023-06-18T09:24:58.924Z,7.55
2023-06-18T09:27:33.548Z,7.35
2023-06-18T09:30:01.040Z,7.57
2023-06-18T09:32:29.068Z,7.68
2023-06-18T09:34:56.536Z,6.90
2023-06-18T09:37:24.068Z,7.53
2023-06-18T09:39:54.713Z,7.90
2023-06-18T09:42:29.052Z,8.20
2023-06-18T09:44:56.788Z,7.70
2023-06-18T09:47:24.386Z,7.65
2023-06-18T09:49:52.296Z,8.07
2023-06-18T09:52:20.417Z,8.30
2023-06-18T09:54:48.452Z,8.45
2023-06-18T09:57:17.485Z,7.70
2023-06-18T09:59:45.209Z,7.47
2023-06-18T10:02:15.825Z,7.07
2023-06-18T10:04:43.531Z,8.90
2023-06-18T10:07:17.056Z,8.73
2023-06-18T10:09:47.058Z,7.97
2023-06-18T10:12:16.364Z,7.97
2023-06-18T10:14:43.770Z,8.43
2023-06-18T10:17:25.110Z,8.48
2023-06-18T10:20:02.189Z,8.85
2023-06-18T10:22:30.458Z,8.70
2023-06-18T10:25:03.613Z,8.88
2023-06-18T10:27:31.320Z,8.90
2023-06-18T10:29:59.007Z,8.10
2023-06-18T10:32:29.640Z,8.15
2023-06-18T10:34:58.894Z,7.82
2023-06-18T10:37:27.471Z,8.70
2023-06-18T10:39:55.170Z,8.40
2023-06-18T10:42:22.849Z,8.23
2023-06-18T10:44:50.125Z,9.32
2023-06-18T10:47:21.687Z,8.93
2023-06-18T10:50:01.176Z,9.50
2023-06-18T10:52:32.121Z,8.88
2023-06-18T10:55:09.413Z,9.20
2023-06-18T10:57:38.961Z,8.93
2023-06-18T11:00:16.280Z,9.73
2023-06-18T11:02:43.873Z,10.48
2023-06-18T11:05:35.387Z,11.40
2023-06-18T11:08:06.850Z,10.27
2023-06-18T11:10:42.008Z,10.27
2023-06-18T11:13:10.621Z,10.15
2023-06-18T11:15:59.395Z,10.05
2023-06-18T11:18:28.153Z,10.32
2023-06-18T11:20:56.577Z,9.95
2023-06-18T11:23:24.429Z,10.77
2023-06-18T11:25:51.988Z,9.95
2023-06-18T11:28:19.762Z,10.32
2023-06-18T11:30:52.757Z,10.40
2023-06-18T11:33:22.578Z,10.82
2023-06-18T11:35:50.656Z,10.25
2023-06-18T11:38:21.497Z,10.77
2023-06-18T11:40:51.092Z,9.73
2023-06-18T11:43:19.079Z,10.00
2023-06-18T11:45:50.001Z,10.63
2023-06-18T11:48:19.217Z,11.10
2023-06-18T11:50:51.423Z,10.68
2023-06-18T11:53:19.086Z,10.02
2023-06-18T11:55:46.559Z,10.13
2023-06-18T11:58:16.944Z,11.00
2023-06-18T12:00:45.164Z,10.80
2023-06-18T12:03:13.524Z,10.93
2023-06-18T12:05:41.241Z,10.27
2023-06-18T12:08:09.904Z,9.65
2023-06-18T12:10:41.436Z,9.90
2023-06-18T12:13:29.281Z,10.30
2023-06-18T12:16:06.775Z,11.02
2023-06-18T12:18:39.093Z,10.00
2023-06-18T12:21:07.059Z,9.23
2023-06-18T12:23:36.861Z,10.63
2023-06-18T12:26:04.696Z,10.07
2023-06-18T12:28:34.748Z,9.48
2023-06-18T12:31:08.390Z,9.60
2023-06-18T12:33:39.455Z,9.32
2023-06-18T12:36:06.863Z,10.20
2023-06-18T12:38:46.879Z,9.98
2023-06-18T12:41:24.307Z,9.10
2023-06-18T12:43:53.496Z,9.48
2023-06-18T12:46:27.520Z,9.63
2023-06-18T12:48:56.138Z,9.82
2023-06-18T12:51:42.670Z,8.85
2023-06-18T12:54:17.090Z,9.63
2023-06-18T12:57:02.765Z,8.57
2023-06-18T12:59:30.134Z,9.75
2023-06-18T13:01:57.821Z,10.23
2023-06-18T13:04:28.214Z,10.38
2023-06-18T13:06:55.939Z,10.52
2023-06-18T13:09:23.786Z,10.93
2023-06-18T13:11:51.423Z,10.25
2023-06-18T13:14:30.606Z,9.85
2023-06-18T13:17:02.803Z,11.32
2023-06-18T13:19:40.417Z,10.18
2023-06-18T13:22:11.458Z,10.88
2023-06-18T13:24:38.887Z,10.45
2023-06-18T13:27:06.737Z,10.68
2023-06-18T13:29:34.387Z,10.18
2023-06-18T13:32:04.270Z,10.70
2023-06-18T13:34:31.811Z,10.35
2023-06-18T13:36:59.428Z,10.43
2023-06-18T13:39:27.037Z,10.45
2023-06-18T13:41:54.401Z,11.50
2023-06-18T13:44:22.021Z,10.90
2023-06-18T13:46:49.481Z,10.70
2023-06-18T13:49:17.749Z,10.32
2023-06-18T13:51:45.448Z,10.70
2023-06-18T13:54:12.802Z,10.40
2023-06-18T13:56:40.375Z,10.15
2023-06-18T13:59:08.047Z,10.45
2023-06-18T14:01:35.460Z,10.38
2023-06-18T14:04:06.416Z,12.30
2023-06-18T14:06:39.085Z,10.82
2023-06-18T14:09:07.088Z,10.93
2023-06-18T14:11:34.579Z,11.15
2023-06-18T14:14:02.088Z,11.00
2023-06-18T14:16:32.017Z,10.45
2023-06-18T14:18:59.532Z,10.30
2023-06-18T14:21:26.952Z,10.80
2023-06-18T14:23:55.174Z,10.88
2023-06-18T14:26:22.701Z,10.70
2023-06-18T14:28:50.136Z,10.95
2023-06-18T14:31:17.855Z,10.27
2023-06-18T14:33:50.256Z,10.35
2023-06-18T14:36:27.167Z,10.68
2023-06-18T14:38:54.573Z,11.30
2023-06-18T14:41:21.935Z,11.48
2023-06-18T14:43:49.575Z,11.05
2023-06-18T14:46:17.124Z,10.63
2023-06-18T14:48:44.603Z,10.90
2023-06-18T14:51:12.238Z,10.70
2023-06-18T14:53:40.075Z,10.40
2023-06-18T14:56:07.496Z,11.12
2023-06-18T14:58:35.225Z,10.25
2023-06-18T15:01:02.695Z,9.93
2023-06-18T15:03:30.199Z,11.38
2023-06-18T15:05:58.258Z,10.90
2023-06-18T15:08:25.685Z,10.60
2023-06-18T15:10:53.046Z,11.35
2023-06-18T15:13:22.138Z,11.95
2023-06-18T15:15:49.646Z,11.52
2023-06-18T15:18:17.061Z,12.63
2023-06-18T15:20:44.783Z,11.38
2023-06-18T15:23:12.215Z,11.65
2023-06-18T15:25:40.581Z,10.38
2023-06-18T15:28:08.228Z,11.15
2023-06-18T15:30:35.662Z,11.90
2023-06-18T15:33:03.105Z,10.98
2023-06-18T15:35:30.912Z,11.23
2023-06-18T15:38:01.433Z,11.07
2023-06-18T15:40:29.017Z,11.73
2023-06-18T15:42:56.743Z,10.82
2023-06-18T15:45:24.363Z,11.30
2023-06-18T15:47:52.228Z,12.45
2023-06-18T15:50:19.935Z,11.73
2023-06-18T15:52:47.330Z,11.43
2023-06-18T15:55:14.724Z,11.82
2023-06-18T15:57:42.391Z,11.77
2023-06-18T16:00:10.499Z,12.55
2023-06-18T16:02:38.388Z,11.45
2023-06-18T16:05:09.827Z,11.52
2023-06-18T16:07:39.800Z,12.18
2023-06-18T16:10:07.757Z,11.45
2023-06-18T16:12:35.161Z,11.20
2023-06-18T16:15:03.378Z,11.35
2023-06-18T16:17:31.662Z,11.38
2023-06-18T16:19:59.757Z,11.70
2023-06-18T16:22:28.025Z,11.43
2023-06-18T16:24:55.700Z,11.60
2023-06-18T16:27:23.214Z,11.40
2023-06-18T16:29:50.916Z,11.52
2023-06-18T16:32:18.329Z,11.10
2023-06-18T16:34:45.828Z,11.25
2023-06-18T16:37:13.599Z,11.77
2023-06-18T16:39:41.079Z,11.10
2023-06-18T16:42:08.558Z,11.27
2023-06-18T16:44:37.090Z,10.90
2023-06-18T16:47:04.745Z,10.95
2023-06-18T16:49:32.153Z,10.63
2023-06-18T16:52:01.249Z,10.93
2023-06-18T16:54:28.880Z,11.38
2023-06-18T16:56:56.270Z,11.90
2023-06-18T16:59:26.726Z,11.00
2023-06-18T17:01:54.168Z,11.32
2023-06-18T17:04:21.727Z,10.82
2023-06-18T17:06:49.420Z,11.38
2023-06-18T17:09:17.776Z,10.77
2023-06-18T17:11:45.607Z,11.00
2023-06-18T17:14:13.358Z,11.95
2023-06-18T17:16:40.762Z,10.27
2023-06-18T17:19:08.211Z,10.98
2023-06-18T17:21:36.205Z,11.20
2023-06-18T17:24:03.754Z,11.98
2023-06-18T17:26:32.678Z,10.90
2023-06-18T17:29:00.527Z,12.05
2023-06-18T17:31:27.983Z,10.70
2023-06-18T17:33:55.805Z,11.18
2023-06-18T17:36:23.470Z,11.40
2023-06-18T17:38:52.005Z,10.63
2023-06-18T17:41:19.657Z,11.18
2023-06-18T17:43:47.372Z,10.85
2023-06-18T17:46:15.585Z,11.15
2023-06-18T17:48:46.121Z,11.07
2023-06-18T17:51:13.825Z,12.20
2023-06-18T17:53:45.947Z,13.07
2023-06-18T17:56:13.802Z,12.73
2023-06-18T17:58:41.190Z,11.68
2023-06-18T18:01:08.706Z,11.10
2023-06-18T18:03:36.612Z,11.55
2023-06-18T18:06:04.379Z,11.18
2023-06-18T18:08:31.759Z,11.88
2023-06-18T18:10:59.410Z,11.52
2023-06-18T18:13:27.850Z,11.27
2023-06-18T18:15:57.364Z,11.93
2023-06-18T18:18:25.148Z,11.95
2023-06-18T18:20:52.759Z,11.07
2023-06-18T18:23:20.168Z,11.23
2023-06-18T18:25:47.908Z,11.55
2023-06-18T18:28:15.418Z,11.75
2023-06-18T18:30:43.003Z,12.43
2023-06-18T18:33:11.614Z,12.20
2023-06-18T18:35:39.171Z,11.32
2023-06-18T18:38:06.635Z,11.63
2023-06-18T18:40:34.256Z,10.70
2023-06-18T18:43:01.616Z,10.50
2023-06-18T18:45:29.027Z,10.93
2023-06-18T18:47:56.858Z,10.52
2023-06-18T18:50:24.611Z,11.12
2023-06-18T18:52:52.242Z,10.10
2023-06-18T18:55:19.923Z,10.50
2023-06-18T18:57:47.332Z,11.52
2023-06-18T19:00:15.119Z,11.52
2023-06-18T19:02:42.846Z,11.45
2023-06-18T19:05:10.341Z,10.85
2023-06-18T19:07:37.809Z,11.20
2023-06-18T19:10:07.234Z,11.12
2023-06-18T19:12:34.732Z,10.60
2023-06-18T19:15:02.739Z,10.85
2023-06-18T19:17:32.511Z,10.90
2023-06-18T19:19:59.908Z,11.50
2023-06-18T19:22:32.908Z,10.65
2023-06-18T19:25:00.684Z,10.65
2023-06-18T19:27:28.191Z,10.65
2023-06-18T19:29:55.669Z,11.12
2023-06-18T19:32:23.889Z,10.65
2023-06-18T19:34:52.200Z,11.05
2023-06-18T19:37:19.824Z,10.80
2023-06-18T19:39:49.174Z,10.65
2023-06-18T19:42:19.922Z,11.55
2023-06-18T19:44:47.714Z,11.38
2023-06-18T19:47:15.147Z,10.10
2023-06-18T19:49:42.541Z,11.50
2023-06-18T19:52:10.254Z,10.40
2023-06-18T19:54:40.624Z,10.25
2023-06-18T19:57:08.549Z,10.30
2023-06-18T19:59:36.234Z,10.73
2023-06-18T20:02:03.822Z,10.82
2023-06-18T20:04:31.542Z,11.18
2023-06-18T20:06:58.992Z,9.80
2023-06-18T20:09:26.570Z,10.48
2023-06-18T20:11:54.256Z,11.45
2023-06-18T20:14:21.731Z,10.40
2023-06-18T20:16:49.164Z,10.18
2023-06-18T20:19:16.833Z,11.35
2023-06-18T20:21:44.217Z,11.45
2023-06-18T20:24:11.622Z,10.52
2023-06-18T20:26:39.334Z,10.85
2023-06-18T20:29:06.758Z,10.63
2023-06-18T20:31:34.202Z,11.45
2023-06-18T20:34:01.977Z,10.93
2023-06-18T20:36:29.893Z,10.63
2023-06-18T20:38:59.985Z,11.50
2023-06-18T20:41:27.917Z,12.15
2023-06-18T20:43:55.340Z,11.27
2023-06-18T20:46:24.341Z,11.00
2023-06-18T20:48:52.066Z,10.77
2023-06-18T20:51:19.469Z,11.82
2023-06-18T20:53:46.901Z,11.75
2023-06-18T20:56:14.590Z,10.55
2023-06-18T20:58:42.045Z,11.57
2023-06-18T21:01:09.554Z,10.82
2023-06-18T21:03:42.601Z,10.90
2023-06-18T21:06:12.373Z,11.02
2023-06-18T21:08:40.646Z,11.48
2023-06-18T21:11:08.064Z,10.93
2023-06-18T21:13:35.517Z,10.27
2023-06-18T21:16:03.237Z,10.35
2023-06-18T21:18:30.640Z,12.18
2023-06-18T21:20:58.017Z,11.50
2023-06-18T21:23:25.688Z,11.35
2023-06-18T21:25:53.160Z,10.50
2023-06-18T21:28:20.923Z,11.57
2023-06-18T21:30:48.610Z,10.77
2023-06-18T21:33:16.025Z,10.02
2023-06-18T21:35:43.463Z,10.80
2023-06-18T21:38:10.997Z,10.52
2023-06-18T21:40:38.386Z,10.27
2023-06-18T21:43:05.837Z,11.45
2023-06-18T21:45:34.030Z,11.25
2023-06-18T21:48:01.514Z,10.57
2023-06-18T21:50:29.089Z,10.65
2023-06-18T21:52:56.755Z,11.55
2023-06-18T21:55:24.133Z,10.52
2023-06-18T21:57:51.672Z,10.82
2023-06-18T22:00:19.357Z,11.12
2023-06-18T22:02:48.573Z,11.95
2023-06-18T22:05:16.024Z,10.73
2023-06-18T22:07:43.454Z,11.60
2023-06-18T22:10:11.781Z,12.45
2023-06-18T22:12:39.200Z,11.15
2023-06-18T22:15:07.598Z,11.00
2023-06-18T22:17:35.532Z,11.63
2023-06-18T22:20:03.752Z,11.05
2023-06-18T22:22:31.870Z,10.52
2023-06-18T22:24:59.549Z,10.43
2023-06-18T22:27:27.143Z,10.48
2023-06-18T22:29:54.586Z,10.02
2023-06-18T22:32:22.537Z,10.57
2023-06-18T22:34:50.068Z,11.00
2023-06-18T22:37:17.615Z,10.50
2023-06-18T22:39:45.286Z,11.43
2023-06-18T22:42:12.704Z,11.02
2023-06-18T22:44:40.094Z,10.65
2023-06-18T22:47:07.821Z,10.55
2023-06-18T22:49:35.216Z,10.77
2023-06-18T22:52:02.626Z,10.63
2023-06-18T22:54:30.236Z,10.38
2023-06-18T22:56:57.716Z,10.98
2023-06-18T22:59:25.149Z,11.00
2023-06-18T23:01:52.825Z,9.98
2023-06-18T23:04:20.373Z,9.88
2023-06-18T23:06:47.774Z,11.02
2023-06-18T23:09:15.546Z,10.05
2023-06-18T23:11:42.907Z,10.20
2023-06-18T23:14:10.351Z,11.35
2023-06-18T23:16:38.043Z,10.43
2023-06-18T23:19:07.162Z,10.77
2023-06-18T23:21:46.738Z,10.05
2023-06-18T23:24:15.753Z,10.70
2023-06-18T23:26:43.255Z,10.43
2023-06-18T23:29:10.942Z,10.27
2023-06-18T23:31:41.723Z,11.00
2023-06-18T23:34:09.193Z,10.23
2023-06-18T23:36:37.089Z,10.45
2023-06-18T23:39:05.217Z,10.75
2023-06-18T23:41:32.744Z,10.43
2023-06-18T23:44:00.208Z,11.48
2023-06-18T23:46:27.908Z,10.00
2023-06-18T23:48:55.403Z,10.40
2023-06-18T23:51:22.848Z,9.40
2023-06-18T23:53:50.535Z,10.15
2023-06-18T23:56:17.899Z,10.10
2023-06-18T23:58:45.331Z,10.20
